Amstetten, Austria
Current Conditions -  °F | °C
As of 2:20 AM on Tuesday 21 Oct 2014 (Local Time) from LOWL Reporting Station
Light Rain Light Rain  
Wind Chill: 57°   Ceiling: 9000
Heat Index: 57°   Visibility: 6mi
Dew Point: 55°   Wind: 3mph
Humidity: 94%   Direction: 210°SSW
Pressure: 29.97"   Gusts: NA
Location:  48.13°N, 14.86°E
Report Text: LOWL 210020Z AUTO 21003KT 170V240 9999 -RA //////CB FEW020 BKN090 14/13 Q1015 RERA
Loading
Personal Weather Stations






























Interactive Weather Map
Tropical Storm Tracking
New forecast layout! Learn more

10-Day Weather Forecast

Advertisements
Track Severe Weather on mobile